Terminal Aerodrome Forecast
Issued by NWS Birmingham, AL

Home | Current Version | Previous Version | Text Only | Print | Product List | Glossary On
Versions: 1 2 3 4 5 6 7 8 9 10 11 12 13 14 15
824
FTUS44 KBMX 062000 AAA
TAFBHM
TAF AMD
KBHM 062000Z 0620/0718 35011KT P6SM BKN070
     FM070200 33004KT P6SM SKC
     FM071400 29010KT P6SM SKC=

USA.gov is the U.S. government's official web portal to all federal, state and local government web resources and services.